Time;durP1;ratioP1;P1;durP2;ratioP2;P2;SDS_P1;SDS_P2;PMS_P1;PMS_P2;Temp;Humidity;BMP_temperature;BMP_pressure;BME280_temperature;BME280_humidity;BME280_pressure;Samples;Min_cycle;Max_cycle;Signal;HPM_P1;HPM_P2
2022/01/19 00:00:56;;;;;;;9.98;9.38;;;;;;;-2.90;82.43;101957.06;5026922;28;20029;-63
2022/01/19 00:03:22;;;;;;;10.18;9.57;;;;;;;-2.93;82.50;101960.63;5011715;28;21024;-62
2022/01/19 00:05:49;;;;;;;10.02;9.43;;;;;;;-2.96;83.12;101962.47;5007528;28;20034;-64
2022/01/19 00:08:18;;;;;;;11.57;10.77;;;;;;;-2.91;82.34;101977.00;5010987;28;20042;-64
2022/01/19 00:10:44;;;;;;;10.27;9.68;;;;;;;-2.97;82.64;101989.31;5006200;28;20026;-64
2022/01/19 00:13:11;;;;;;;9.95;9.35;;;;;;;-3.01;83.30;101992.91;5010637;28;20041;-63
2022/01/19 00:15:36;;;;;;;10.43;9.82;;;;;;;-3.02;83.30;101991.22;5013090;28;20146;-64
2022/01/19 00:18:02;;;;;;;10.30;9.70;;;;;;;-2.99;83.39;101991.97;5011342;28;20021;-64
2022/01/19 00:20:32;;;;;;;9.98;9.43;;;;;;;-3.03;82.85;101997.31;5012857;28;20030;-64
2022/01/19 00:23:03;;;;;;;9.82;9.32;;;;;;;-3.07;83.51;101992.25;5015682;28;20080;-62
2022/01/19 00:25:32;;;;;;;9.95;9.35;;;;;;;-3.04;83.78;101985.25;5013514;28;20037;-64
2022/01/19 00:27:58;;;;;;;9.93;9.43;;;;;;;-3.01;84.99;101985.13;5019911;28;20350;-64
2022/01/19 00:30:24;;;;;;;9.95;9.43;;;;;;;-3.10;84.00;101981.94;5015403;28;20037;-64
2022/01/19 00:32:49;;;;;;;10.32;9.73;;;;;;;-3.07;84.38;101973.22;5016572;28;20018;-63
2022/01/19 00:35:15;;;;;;;10.45;9.85;;;;;;;-3.10;83.74;101987.13;5017014;28;20053;-63
2022/01/19 00:37:42;;;;;;;10.80;10.10;;;;;;;-3.10;83.46;101984.53;5014750;28;20029;-63
2022/01/19 00:40:10;;;;;;;9.75;9.25;;;;;;;-3.24;83.54;101976.38;5013814;28;20503;-63
2022/01/19 00:42:36;;;;;;;10.40;9.80;;;;;;;-3.19;84.23;101984.84;5027182;28;20049;-64
2022/01/19 00:45:04;;;;;;;10.52;9.93;;;;;;;-3.18;83.92;101994.34;5016649;28;20026;-64
2022/01/19 00:47:30;;;;;;;10.55;9.95;;;;;;;-3.21;84.55;101994.44;5010497;28;20037;-64
2022/01/19 00:49:55;;;;;;;9.82;9.32;;;;;;;-3.30;84.34;101988.72;5015231;28;20026;-64
2022/01/19 00:52:24;;;;;;;11.02;10.32;;;;;;;-3.30;84.52;101989.56;5013861;28;20021;-63
2022/01/19 00:54:50;;;;;;;10.32;9.73;;;;;;;-3.31;85.13;101998.22;5014653;28;20030;-63
2022/01/19 00:57:15;;;;;;;9.90;9.40;;;;;;;-3.31;84.76;102000.81;5016375;28;20022;-64
2022/01/19 00:59:41;;;;;;;11.75;10.95;;;;;;;-3.30;84.71;102006.88;5019765;28;20037;-64
2022/01/19 01:02:06;;;;;;;10.20;9.70;;;;;;;-3.34;85.55;102009.56;5008289;28;20057;-64
2022/01/19 01:04:32;;;;;;;11.05;10.35;;;;;;;-3.33;84.99;102000.88;5013054;28;20133;-63
2022/01/19 01:06:58;;;;;;;9.80;9.30;;;;;;;-3.34;85.46;101996.59;5016903;28;20034;-63
2022/01/19 01:09:24;;;;;;;9.95;9.38;;;;;;;-3.44;85.13;101986.56;5013098;28;20091;-63
2022/01/19 01:20:07;;;;;;;9.35;8.88;;;;;;;-3.46;85.74;102015.13;4974305;28;20050;-63
2022/01/19 01:22:33;;;;;;;10.15;9.55;;;;;;;-3.50;86.20;102015.28;5029543;28;20112;-64
2022/01/19 01:24:58;;;;;;;9.55;9.05;;;;;;;-3.62;86.45;101999.19;5012896;28;20500;-64
2022/01/19 01:27:24;;;;;;;10.60;9.95;;;;;;;-3.54;86.24;102017.13;5021863;28;20053;-63
2022/01/19 01:29:49;;;;;;;9.60;9.10;;;;;;;-3.64;86.58;101998.41;5001296;28;20026;-64
2022/01/19 01:32:15;;;;;;;9.80;9.30;;;;;;;-3.57;87.12;102001.66;5013088;28;20030;-64
2022/01/19 01:34:41;;;;;;;9.43;8.93;;;;;;;-3.61;86.87;102000.06;5013965;28;20393;-62
2022/01/19 01:37:06;;;;;;;9.88;9.38;;;;;;;-3.61;87.20;101994.88;5015767;28;20503;-63
2022/01/19 01:39:32;;;;;;;10.80;10.20;;;;;;;-3.70;86.86;101985.63;5005005;28;20037;-64
2022/01/19 01:41:57;;;;;;;10.18;9.60;;;;;;;-3.66;87.28;102001.97;5008811;28;20034;-64
2022/01/19 01:44:22;;;;;;;9.90;9.40;;;;;;;-3.70;87.11;101998.59;5010109;28;20041;-64
2022/01/19 01:46:57;;;;;;;10.00;9.50;;;;;;;-3.69;87.38;102002.88;5014104;28;20104;-64
2022/01/19 01:49:43;;;;;;;9.55;9.05;;;;;;;-3.70;87.58;102011.56;5028903;28;20033;-64
2022/01/19 01:54:53;;;;;;;10.75;10.13;;;;;;;-3.76;88.12;102018.69;5011882;28;20500;-64
2022/01/19 01:57:19;;;;;;;10.10;9.60;;;;;;;-3.78;88.27;102023.06;5016390;28;20034;-64
2022/01/19 01:59:44;;;;;;;11.02;10.35;;;;;;;-3.79;88.41;102026.56;5008914;28;20036;-63
2022/01/19 02:02:13;;;;;;;10.60;10.00;;;;;;;-3.77;88.01;102017.81;5012179;28;20076;-64
2022/01/19 02:04:41;;;;;;;9.88;9.38;;;;;;;-3.79;87.99;102029.16;5013803;28;20033;-62
2022/01/19 02:09:53;;;;;;;10.40;9.77;;;;;;;-3.91;88.45;102028.59;5003173;28;20365;-63
2022/01/19 02:23:22;;;;;;;9.68;9.18;;;;;;;-3.94;88.61;102041.69;5013830;28;20029;-64
2022/01/19 02:25:57;;;;;;;10.45;9.85;;;;;;;-3.99;89.32;102035.75;5012666;28;20129;-63
2022/01/19 02:41:45;;;;;;;11.32;10.63;;;;;;;-3.96;90.04;102034.84;5014960;28;20088;-62
2022/01/19 02:44:14;;;;;;;10.70;10.10;;;;;;;-4.00;90.26;102044.44;5012402;28;20022;-64
2022/01/19 02:49:09;;;;;;;10.98;10.27;;;;;;;-4.00;90.26;102022.84;5012994;28;20026;-63
2022/01/19 02:49:25;;;;;;;10.57;9.98;;;;;;;-4.04;91.00;102021.22;5012894;28;20029;-64
2022/01/19 02:51:56;;;;;;;9.80;9.30;;;;;;;-4.05;91.28;102022.13;5012982;28;20022;-64
2022/01/19 02:54:24;;;;;;;10.73;10.13;;;;;;;-4.00;90.98;102018.50;4989660;28;20071;-62
2022/01/19 02:56:52;;;;;;;9.90;9.40;;;;;;;-4.02;91.50;102025.50;5013556;28;20029;-63
2022/01/19 02:59:26;;;;;;;10.60;10.00;;;;;;;-4.02;91.85;102019.47;5010950;28;20147;-63
2022/01/19 03:10:08;;;;;;;10.95;10.32;;;;;;;-4.22;93.02;102014.84;4966173;28;20161;-63
2022/01/19 03:12:34;;;;;;;10.18;9.68;;;;;;;-4.20;93.60;102029.44;5012775;28;20108;-62
2022/01/19 03:14:59;;;;;;;10.00;9.50;;;;;;;-4.15;93.11;102031.06;5012206;28;20038;-62
2022/01/19 03:17:25;;;;;;;11.20;10.50;;;;;;;-4.18;93.42;102042.38;5012583;28;20105;-64
2022/01/19 03:19:50;;;;;;;10.63;10.02;;;;;;;-4.22;94.16;102040.75;5012403;28;20652;-64
2022/01/19 03:22:23;;;;;;;9.70;9.20;;;;;;;-4.24;94.54;102047.75;4995374;28;20084;-63
2022/01/19 03:24:51;;;;;;;10.18;9.65;;;;;;;-4.28;94.48;102033.16;5011023;28;20026;-64
2022/01/19 03:27:17;;;;;;;9.95;9.45;;;;;;;-4.33;95.21;102041.06;5013424;28;20527;-64
2022/01/19 03:29:43;;;;;;;10.65;10.05;;;;;;;-4.30;94.94;102043.56;5013573;28;20034;-64
2022/01/19 03:32:10;;;;;;;11.35;10.65;;;;;;;-4.32;94.66;102037.59;5012201;28;20029;-63
2022/01/19 03:34:36;;;;;;;10.50;9.90;;;;;;;-4.24;94.55;102029.59;5010601;28;20113;-63
2022/01/19 03:37:04;;;;;;;10.18;9.68;;;;;;;-4.25;95.03;102022.72;5010472;28;20528;-63
2022/01/19 03:39:31;;;;;;;10.45;9.95;;;;;;;-4.23;94.77;102024.38;5010018;28;20045;-63
2022/01/19 03:41:56;;;;;;;9.90;9.40;;;;;;;-4.19;94.80;102020.81;5012866;28;20025;-64
2022/01/19 03:44:22;;;;;;;10.40;9.90;;;;;;;-4.23;94.61;102024.38;5013395;28;20022;-64
2022/01/19 03:47:02;;;;;;;10.48;9.85;;;;;;;-4.21;95.20;102024.31;5012087;28;20033;-64
2022/01/19 03:49:29;;;;;;;10.27;9.77;;;;;;;-4.27;95.13;102017.56;5007461;28;20026;-64
2022/01/19 03:51:58;;;;;;;9.68;9.18;;;;;;;-4.39;95.17;102017.94;5011367;28;20037;-65
2022/01/19 03:54:26;;;;;;;10.63;10.02;;;;;;;-4.34;95.34;102030.72;5009328;28;20112;-64
2022/01/19 03:56:52;;;;;;;10.48;9.93;;;;;;;-4.38;95.43;102026.53;5010808;28;20033;-63
2022/01/19 03:59:18;;;;;;;10.55;9.95;;;;;;;-4.38;95.92;102024.78;5009246;28;20033;-64
2022/01/19 04:01:43;;;;;;;10.50;9.90;;;;;;;-4.40;95.94;102033.50;5010028;28;20061;-63
2022/01/19 04:04:29;;;;;;;10.23;9.73;;;;;;;-4.37;95.97;102033.41;4999334;28;20037;-64
2022/01/19 04:09:37;;;;;;;9.88;9.38;;;;;;;-4.32;96.47;102037.59;4999593;28;20113;-64
2022/01/19 04:12:04;;;;;;;11.07;10.48;;;;;;;-4.31;96.88;102036.69;5010958;28;20033;-63
2022/01/19 04:14:29;;;;;;;11.38;10.68;;;;;;;-4.32;97.88;102031.56;5010377;28;20072;-63
2022/01/19 04:16:59;;;;;;;11.98;11.18;;;;;;;-4.27;98.13;102037.44;5006787;28;20548;-65
2022/01/19 04:21:53;;;;;;;12.15;11.38;;;;;;;-4.27;99.25;102029.66;5008588;28;20276;-63
2022/01/19 04:24:20;;;;;;;11.10;10.50;;;;;;;-4.22;99.71;102043.34;5007450;28;20092;-63
2022/01/19 04:26:48;;;;;;;12.65;11.75;;;;;;;-4.24;99.84;102040.81;5007115;28;20500;-64
2022/01/19 04:29:14;;;;;;;10.25;9.73;;;;;;;-4.25;100.00;102031.34;5004114;28;20029;-64
2022/01/19 04:31:40;;;;;;;10.63;10.02;;;;;;;-4.17;100.00;102036.31;5012249;28;20141;-64
2022/01/19 04:34:06;;;;;;;11.45;10.75;;;;;;;-3.68;100.00;102030.50;5009912;28;20469;-63
2022/01/19 04:44:39;;;;;;;;;;;;;;;-3.76;100.00;102032.50;5012239;28;20048;-64
2022/01/19 05:05:46;;;;;;;10.77;10.18;;;;;;;-4.18;100.00;102025.09;4997393;28;20034;-64
2022/01/19 05:08:20;;;;;;;11.00;10.40;;;;;;;-4.15;100.00;102016.38;5010904;28;20613;-64
2022/01/19 05:13:36;;;;;;;11.77;11.02;;;;;;;-4.32;100.00;102013.44;5005259;28;20005;-65
2022/01/19 05:16:02;;;;;;;11.88;11.13;;;;;;;-4.45;100.00;102007.72;5006373;28;20147;-62
2022/01/19 05:18:27;;;;;;;12.05;11.25;;;;;;;-4.46;100.00;102026.75;5006857;28;20124;-63
2022/01/19 05:20:53;;;;;;;12.18;11.38;;;;;;;-4.50;100.00;102022.53;5013802;28;20040;-65
2022/01/19 05:23:18;;;;;;;13.15;12.23;;;;;;;-4.58;100.00;102024.50;5002048;28;20034;-66
2022/01/19 05:25:45;;;;;;;11.18;10.57;;;;;;;-4.61;100.00;102027.16;5004256;28;20070;-64
2022/01/19 05:28:11;;;;;;;12.85;11.95;;;;;;;-4.70;100.00;102015.31;5009879;28;20469;-64
2022/01/19 05:30:37;;;;;;;12.90;12.07;;;;;;;-4.67;100.00;102027.34;5011120;28;20034;-65
2022/01/19 05:33:02;;;;;;;11.80;11.20;;;;;;;-4.64;100.00;102029.81;5026349;28;20091;-65
2022/01/19 05:35:28;;;;;;;12.57;11.77;;;;;;;-4.64;100.00;102025.50;5006924;28;20096;-65
2022/01/19 05:37:54;;;;;;;13.88;12.88;;;;;;;-4.61;100.00;102019.41;4996693;28;20026;-64
2022/01/19 05:40:20;;;;;;;14.07;13.10;;;;;;;-4.61;100.00;102032.34;5004152;28;20030;-64
2022/01/19 05:42:49;;;;;;;12.88;12.07;;;;;;;-4.69;100.00;102019.59;5005635;28;20033;-66
2022/01/19 05:45:16;;;;;;;12.30;11.57;;;;;;;-4.61;100.00;102033.19;5012755;28;20030;-63
2022/01/19 05:47:42;;;;;;;12.82;12.02;;;;;;;-4.61;100.00;102045.28;5011212;28;20049;-66
2022/01/19 05:50:08;;;;;;;14.70;13.57;;;;;;;-4.60;100.00;102047.00;5012375;28;20033;-65
2022/01/19 05:52:33;;;;;;;12.30;11.60;;;;;;;-4.58;100.00;102040.03;5011870;28;20116;-66
2022/01/19 05:54:59;;;;;;;12.25;11.55;;;;;;;-4.60;100.00;102039.22;5008792;28;20072;-67
2022/01/19 05:57:25;;;;;;;13.27;12.38;;;;;;;-4.51;100.00;102050.19;4981266;28;20026;-66
2022/01/19 05:59:50;;;;;;;11.60;10.95;;;;;;;-4.46;100.00;102050.91;5010625;28;20382;-64
2022/01/19 06:02:16;;;;;;;12.95;12.15;;;;;;;-4.27;100.00;102052.97;5011438;28;20056;-65
2022/01/19 06:04:42;;;;;;;12.15;11.35;;;;;;;-3.62;100.00;102045.03;5013897;28;20366;-64
2022/01/19 06:07:07;;;;;;;10.63;10.02;;;;;;;-3.19;100.00;102043.69;5008833;28;20120;-65
2022/01/19 06:09:37;;;;;;;11.70;10.85;;;;;;;-2.86;100.00;102044.34;5032802;28;20464;-66
2022/01/19 06:12:07;;;;;;;9.32;8.82;;;;;;;-2.55;98.53;102050.19;5017221;28;20488;-67
2022/01/19 06:14:34;;;;;;;8.65;8.18;;;;;;;-2.29;96.82;102046.66;5010821;28;20087;-65
2022/01/19 06:17:01;;;;;;;8.43;8.00;;;;;;;-2.05;95.62;102051.91;5005252;28;20052;-65
2022/01/19 06:19:29;;;;;;;8.85;8.35;;;;;;;-1.67;93.07;102059.09;5007047;28;20172;-65
2022/01/19 06:21:55;;;;;;;8.90;8.40;;;;;;;-1.33;90.79;102062.13;5009672;28;20041;-65
2022/01/19 06:24:20;;;;;;;8.63;8.13;;;;;;;-0.83;88.62;102057.47;5012887;28;20029;-65
2022/01/19 06:26:46;;;;;;;7.75;7.35;;;;;;;-0.18;86.01;102056.41;5014603;28;20053;-65
2022/01/19 06:29:12;;;;;;;7.88;7.47;;;;;;;-0.07;83.87;102071.59;5005182;28;20535;-65
2022/01/19 06:31:38;;;;;;;7.78;7.38;;;;;;;1.02;81.07;102069.94;5014578;28;20034;-65
2022/01/19 06:34:03;;;;;;;7.75;7.35;;;;;;;2.33;73.27;102073.56;5008902;28;20042;-64
2022/01/19 06:36:29;;;;;;;9.30;8.70;;;;;;;3.76;66.47;102069.72;5008501;28;20026;-64
2022/01/19 06:38:54;;;;;;;8.52;8.02;;;;;;;5.30;61.37;102068.66;5006382;28;20370;-64
2022/01/19 06:41:20;;;;;;;9.00;8.50;;;;;;;6.13;55.23;102069.13;5022166;28;20021;-64
2022/01/19 06:43:45;;;;;;;8.18;7.78;;;;;;;7.29;51.44;102064.09;5014248;28;20026;-64
2022/01/19 06:46:11;;;;;;;7.85;7.45;;;;;;;7.45;50.05;102072.53;5002042;28;20113;-64
2022/01/19 06:48:37;;;;;;;9.15;8.65;;;;;;;7.46;49.58;102063.66;5009188;28;20072;-65
2022/01/19 06:51:03;;;;;;;8.57;8.10;;;;;;;7.26;48.77;102076.69;5011579;28;20053;-65
2022/01/19 06:53:28;;;;;;;8.50;8.10;;;;;;;8.18;46.95;102078.38;5007870;28;20048;-65
2022/01/19 06:55:57;;;;;;;8.13;7.72;;;;;;;9.38;44.53;102072.97;5013892;28;20021;-65
2022/01/19 06:58:26;;;;;;;8.20;7.80;;;;;;;8.59;44.47;102077.72;5012861;28;20030;-65
2022/01/19 07:00:52;;;;;;;8.52;8.13;;;;;;;9.56;42.86;102078.56;5010421;28;20563;-65
2022/01/19 07:03:18;;;;;;;8.05;7.65;;;;;;;9.18;41.84;102074.66;5012584;28;20065;-64
2022/01/19 07:05:43;;;;;;;8.00;7.60;;;;;;;9.92;40.46;102079.88;5012082;28;20037;-64
2022/01/19 07:08:09;;;;;;;8.00;7.60;;;;;;;10.51;39.69;102072.00;5007856;28;20508;-64
2022/01/19 07:10:34;;;;;;;7.80;7.40;;;;;;;11.52;37.79;102081.38;5009862;28;20053;-64
2022/01/19 07:13:02;;;;;;;7.88;7.50;;;;;;;11.13;38.30;102061.16;5007110;28;20034;-66
2022/01/19 07:15:28;;;;;;;8.43;8.02;;;;;;;10.80;38.52;102081.84;5018945;28;20026;-64
2022/01/19 07:17:54;;;;;;;9.23;8.73;;;;;;;10.96;37.95;102078.63;5001690;28;20048;-65
2022/01/19 07:20:20;;;;;;;9.02;8.52;;;;;;;11.95;37.24;102084.50;5010148;28;20130;-65
2022/01/19 07:22:47;;;;;;;8.35;7.95;;;;;;;12.09;36.21;102089.34;5009586;28;20034;-65
2022/01/19 07:25:14;;;;;;;8.50;8.10;;;;;;;12.73;34.56;102083.13;5012532;28;20511;-65
2022/01/19 07:27:40;;;;;;;8.73;8.32;;;;;;;12.25;35.14;102094.88;5021154;28;20496;-65
2022/01/19 07:30:06;;;;;;;8.52;8.13;;;;;;;11.95;35.83;102088.00;5012710;28;20064;-65
2022/01/19 07:32:34;;;;;;;7.88;7.57;;;;;;;12.39;34.41;102085.56;5019267;28;20030;-64
2022/01/19 07:35:02;;;;;;;8.55;8.15;;;;;;;12.48;34.51;102075.84;5011984;28;20038;-66
2022/01/19 07:37:30;;;;;;;10.63;10.02;;;;;;;12.67;33.89;102073.91;4998330;28;20041;-68
2022/01/19 07:39:58;;;;;;;8.40;8.00;;;;;;;12.20;34.70;102073.22;5005627;28;20069;-67
2022/01/19 07:42:25;;;;;;;8.55;8.15;;;;;;;13.55;32.89;102069.53;5006967;28;20547;-68
2022/01/19 07:44:53;;;;;;;9.00;8.57;;;;;;;10.61;37.14;102060.56;5012144;28;20037;-67
2022/01/19 07:47:20;;;;;;;8.10;7.70;;;;;;;12.41;34.71;102063.16;5010696;28;20059;-68
2022/01/19 07:49:45;;;;;;;8.55;8.15;;;;;;;12.54;33.81;102045.97;5010610;28;20037;-67
2022/01/19 07:52:14;;;;;;;8.75;8.35;;;;;;;11.19;36.22;102050.81;5000574;28;20033;-68
2022/01/19 07:54:40;;;;;;;8.20;7.80;;;;;;;13.60;33.09;102047.75;5006843;28;20140;-68
2022/01/19 07:57:06;;;;;;;8.43;8.02;;;;;;;12.84;34.54;102058.94;5009430;28;20064;-67
2022/01/19 07:59:31;;;;;;;8.00;7.60;;;;;;;13.34;33.40;102045.06;5007733;28;20026;-67
2022/01/19 08:01:58;;;;;;;8.15;7.75;;;;;;;13.36;32.96;102043.06;5003590;28;20044;-66
2022/01/19 08:04:24;;;;;;;8.00;7.60;;;;;;;9.18;40.43;102044.69;4989536;28;20025;-67
2022/01/19 08:06:54;;;;;;;9.48;8.98;;;;;;;7.44;45.60;102043.63;5007927;28;20045;-69
2022/01/19 08:09:23;;;;;;;10.15;9.57;;;;;;;7.43;45.80;102050.69;5001265;28;20022;-68
2022/01/19 08:11:52;;;;;;;8.48;8.07;;;;;;;8.68;42.49;102050.56;5004913;28;20034;-67
2022/01/19 08:14:18;;;;;;;8.52;8.13;;;;;;;7.63;45.19;102054.44;5011716;28;20038;-68
2022/01/19 08:16:44;;;;;;;8.52;8.13;;;;;;;7.28;45.59;102043.13;5000699;28;20109;-68
2022/01/19 08:19:10;;;;;;;9.27;8.77;;;;;;;5.78;50.09;102022.34;4990296;28;20026;-68
2022/01/19 08:21:35;;;;;;;9.43;8.93;;;;;;;5.37;51.59;102027.84;5012954;28;20465;-68
2022/01/19 08:24:01;;;;;;;9.48;8.98;;;;;;;4.53;54.31;102005.31;5010729;28;20028;-67
2022/01/19 08:26:27;;;;;;;10.10;9.50;;;;;;;4.27;55.56;102017.53;4995264;28;20043;-66
2022/01/19 08:28:52;;;;;;;8.90;8.45;;;;;;;4.24;57.03;102020.31;4977428;28;20027;-68
2022/01/19 08:31:18;;;;;;;9.85;9.25;;;;;;;4.56;56.48;102015.66;4988080;28;20035;-66
2022/01/19 08:33:43;;;;;;;9.43;8.93;;;;;;;4.20;56.58;102023.25;4990446;28;20030;-68
2022/01/19 08:36:08;;;;;;;9.23;8.73;;;;;;;3.88;57.68;102008.56;4989233;28;20034;-67
2022/01/19 08:38:35;;;;;;;8.93;8.52;;;;;;;3.83;58.54;102029.03;4987248;28;20038;-67
2022/01/19 08:41:01;;;;;;;8.30;7.90;;;;;;;3.60;58.78;102030.44;4986658;28;20439;-68
2022/01/19 08:43:29;;;;;;;9.00;8.50;;;;;;;3.52;59.85;102023.94;4989579;28;20043;-68
2022/01/19 08:45:56;;;;;;;9.18;8.68;;;;;;;3.54;59.91;102014.22;4985327;28;20026;-69
2022/01/19 08:48:22;;;;;;;8.90;8.40;;;;;;;3.81;58.93;102011.66;4989967;28;20454;-66
2022/01/19 08:50:47;;;;;;;8.38;7.97;;;;;;;3.48;59.78;102010.16;4986503;28;20088;-65
2022/01/19 08:53:16;;;;;;;8.95;8.45;;;;;;;3.97;58.97;102009.78;4992743;28;20410;-66
2022/01/19 08:55:41;;;;;;;8.48;8.07;;;;;;;3.74;58.77;102012.97;4995533;28;20113;-65
2022/01/19 08:58:07;;;;;;;9.40;8.88;;;;;;;4.12;57.81;102006.22;4993018;28;20565;-65
2022/01/19 09:00:33;;;;;;;8.60;8.20;;;;;;;3.50;59.37;101996.94;4990777;28;20389;-65
2022/01/19 09:02:58;;;;;;;9.30;8.80;;;;;;;3.67;59.21;102009.03;4991145;28;20093;-65
2022/01/19 09:05:24;;;;;;;8.98;8.48;;;;;;;3.64;58.93;101993.50;4992798;28;20032;-65
2022/01/19 09:07:51;;;;;;;9.30;8.80;;;;;;;3.14;59.81;101989.50;4992594;28;20030;-66
2022/01/19 09:10:17;;;;;;;9.00;8.50;;;;;;;3.17;61.10;101984.94;4988403;28;20019;-66
2022/01/19 09:12:43;;;;;;;9.30;8.80;;;;;;;2.88;61.40;101972.69;4985644;28;20677;-65
2022/01/19 09:15:10;;;;;;;9.25;8.75;;;;;;;3.02;61.16;101980.59;4997890;28;20105;-64
2022/01/19 09:17:36;;;;;;;10.05;9.45;;;;;;;3.22;60.98;101980.25;4993316;28;20026;-65
2022/01/19 09:20:06;;;;;;;10.00;9.40;;;;;;;3.58;58.73;101984.22;4987024;28;20026;-66
2022/01/19 09:22:32;;;;;;;8.60;8.10;;;;;;;4.76;55.95;101985.41;4989218;28;20089;-66
2022/01/19 09:24:58;;;;;;;8.68;8.20;;;;;;;3.64;59.27;101980.38;4987709;28;20065;-65
2022/01/19 09:27:23;;;;;;;8.65;8.23;;;;;;;3.65;58.90;101961.06;5010015;28;20077;-65
2022/01/19 09:29:49;;;;;;;8.40;8.00;;;;;;;3.70;58.55;101966.88;5009764;28;20038;-66
2022/01/19 09:32:15;;;;;;;9.25;8.75;;;;;;;3.70;58.95;101957.22;5010569;28;20441;-65
2022/01/19 09:34:47;;;;;;;8.07;7.68;;;;;;;3.26;59.20;101958.16;5013289;28;20021;-65
2022/01/19 09:37:12;;;;;;;8.18;7.78;;;;;;;3.27;59.92;101962.47;4995263;28;20092;-65
2022/01/19 09:39:38;;;;;;;9.32;8.75;;;;;;;2.95;60.15;101938.19;5011837;28;20033;-67
2022/01/19 09:42:05;;;;;;;9.18;8.68;;;;;;;2.82;61.56;101934.59;5008220;28;20022;-66
2022/01/19 09:44:31;;;;;;;10.45;9.75;;;;;;;2.81;61.18;101925.03;5004076;28;20025;-67
2022/01/19 09:46:57;;;;;;;9.05;8.55;;;;;;;3.70;59.26;101919.63;5026405;28;20112;-66
2022/01/19 09:49:24;;;;;;;8.43;8.02;;;;;;;4.44;56.02;101917.44;5008447;28;20026;-66
2022/01/19 09:51:52;;;;;;;8.90;8.40;;;;;;;4.24;57.04;101909.16;5015450;28;20033;-66
2022/01/19 09:54:21;;;;;;;9.38;8.82;;;;;;;3.76;57.44;101906.13;5014578;28;20107;-66
2022/01/19 09:56:48;;;;;;;8.95;8.45;;;;;;;3.56;57.22;101826.03;5014509;28;20133;-65
2022/01/19 09:59:15;;;;;;;8.35;7.95;;;;;;;3.76;57.91;101887.75;5010486;28;20038;-64
2022/01/19 10:02:08;;;;;;;8.40;8.00;;;;;;;3.58;57.70;101901.09;5010122;28;20026;-66
2022/01/19 10:04:41;;;;;;;8.90;8.40;;;;;;;3.87;57.39;101890.53;5010395;28;20061;-66
2022/01/19 10:07:37;;;;;;;8.85;8.35;;;;;;;3.95;56.98;101893.50;5012475;28;20032;-65
2022/01/19 10:10:06;;;;;;;8.90;8.40;;;;;;;4.63;55.15;101889.94;5005763;28;20041;-65
2022/01/19 10:18:14;;;;;;;8.70;8.20;;;;;;;4.71;54.38;101887.66;5003764;28;20041;-66
2022/01/19 10:20:39;;;;;;;8.45;8.05;;;;;;;5.23;52.82;101884.06;5016933;28;20029;-67
2022/01/19 10:23:25;;;;;;;7.95;7.55;;;;;;;4.96;53.58;101884.19;4999554;28;20048;-67
2022/01/19 10:25:54;;;;;;;9.02;8.52;;;;;;;4.65;54.53;101865.22;5004300;28;20041;-66
2022/01/19 10:28:19;;;;;;;9.00;8.50;;;;;;;4.32;54.90;101864.84;4997045;28;20053;-65
2022/01/19 10:30:47;;;;;;;9.38;8.88;;;;;;;4.19;55.42;101858.72;5017071;28;20053;-66
2022/01/19 10:33:17;;;;;;;9.75;9.15;;;;;;;4.08;55.79;101848.94;5015258;28;20038;-65
2022/01/19 10:35:47;;;;;;;8.65;8.18;;;;;;;4.22;55.95;101851.50;4997286;28;20413;-66
2022/01/19 10:38:27;;;;;;;8.80;8.32;;;;;;;4.05;55.80;101830.75;5012463;28;20029;-64
2022/01/19 10:40:57;;;;;;;9.35;8.85;;;;;;;3.90;56.40;101839.63;5007068;28;20055;-65
2022/01/19 10:43:35;;;;;;;9.50;8.98;;;;;;;4.11;56.28;101831.19;5004643;28;20041;-64
2022/01/19 10:46:20;;;;;;;8.13;7.72;;;;;;;3.82;55.52;101840.13;5009141;28;20026;-65
2022/01/19 10:48:46;;;;;;;9.05;8.55;;;;;;;3.42;56.42;101839.19;5009131;28;20034;-65
2022/01/19 10:51:17;;;;;;;9.75;9.15;;;;;;;3.51;55.99;101839.44;5003811;28;20018;-66
2022/01/19 10:54:04;;;;;;;9.05;8.55;;;;;;;3.42;56.79;101842.66;5006485;28;20037;-66
2022/01/19 10:56:32;;;;;;;10.50;9.80;;;;;;;3.51;57.00;101842.06;5004276;28;20393;-66
2022/01/19 10:59:03;;;;;;;8.63;8.20;;;;;;;3.76;55.95;101840.53;4987439;28;20030;-66
2022/01/19 11:01:51;;;;;;;8.52;8.13;;;;;;;3.59;55.65;101838.94;5011730;28;20112;-65
2022/01/19 11:04:49;;;;;;;8.80;8.30;;;;;;;3.78;55.24;101828.13;5008289;28;20083;-68
2022/01/19 11:07:20;;;;;;;8.80;8.30;;;;;;;4.02;53.95;101821.28;4950598;28;20128;-66
2022/01/19 11:09:55;;;;;;;9.63;9.02;;;;;;;4.26;53.07;101824.09;5004755;28;20080;-65
2022/01/19 11:12:23;;;;;;;9.98;9.30;;;;;;;4.18;53.43;101812.38;5002769;28;20361;-65
2022/01/19 11:14:49;;;;;;;8.35;7.95;;;;;;;4.10;53.38;101808.47;5009666;28;20018;-67
2022/01/19 11:17:14;;;;;;;8.85;8.38;;;;;;;4.21;53.65;101815.66;5028362;28;20409;-67
2022/01/19 11:19:43;;;;;;;8.85;8.35;;;;;;;4.18;52.96;101815.84;5012088;28;20056;-66
2022/01/19 11:22:46;;;;;;;8.95;8.45;;;;;;;4.13;52.43;101810.94;5027112;28;20041;-66
2022/01/19 11:25:40;;;;;;;8.60;8.10;;;;;;;4.05;52.08;101799.25;5010914;28;20030;-67
2022/01/19 11:28:05;;;;;;;9.05;8.55;;;;;;;4.28;50.21;101784.59;5004172;28;20057;-66
2022/01/19 11:30:33;;;;;;;8.80;8.30;;;;;;;4.29;50.33;101773.13;4992796;28;20488;-67
2022/01/19 11:33:18;;;;;;;8.77;8.27;;;;;;;4.23;50.50;101782.25;5016879;28;20025;-67
2022/01/19 11:35:47;;;;;;;8.73;8.25;;;;;;;4.32;51.06;101770.28;5007907;28;20161;-66
2022/01/19 11:38:42;;;;;;;8.93;8.43;;;;;;;4.21;51.71;101770.19;4993242;28;20029;-66
2022/01/19 11:41:08;;;;;;;8.75;8.25;;;;;;;4.14;51.49;101782.88;5007292;28;20167;-65
2022/01/19 11:43:35;;;;;;;9.25;8.65;;;;;;;4.07;51.75;101787.69;5006935;28;20033;-66
2022/01/19 11:46:03;;;;;;;8.75;8.25;;;;;;;4.07;51.72;101779.81;5010261;28;20083;-66
2022/01/19 11:48:34;;;;;;;8.80;8.30;;;;;;;3.98;51.90;101777.81;5011318;28;20091;-66
2022/01/19 11:51:40;;;;;;;8.70;8.20;;;;;;;4.32;51.59;101760.59;5011335;28;20026;-66
2022/01/19 11:54:21;;;;;;;9.75;9.15;;;;;;;4.02;51.66;101754.78;5005816;28;20067;-65
2022/01/19 11:57:02;;;;;;;8.70;8.20;;;;;;;4.04;52.16;101748.53;5000447;28;20496;-68
2022/01/19 11:59:34;;;;;;;8.68;8.18;;;;;;;3.99;52.21;101739.25;5024550;28;20041;-68
2022/01/19 12:02:21;;;;;;;8.75;8.25;;;;;;;4.46;51.73;101754.41;5000513;28;20056;-67
2022/01/19 12:05:00;;;;;;;9.02;8.52;;;;;;;4.42;49.77;101752.97;5002349;28;20405;-67
2022/01/19 12:08:03;;;;;;;8.85;8.35;;;;;;;4.26;49.63;101745.28;5005620;28;20030;-67
2022/01/19 12:10:30;;;;;;;8.25;7.85;;;;;;;4.46;48.86;101754.41;4967536;28;20386;-66
2022/01/19 12:13:27;;;;;;;8.90;8.40;;;;;;;4.34;48.95;101745.59;5003431;28;20038;-68
2022/01/19 12:16:07;;;;;;;7.93;7.53;;;;;;;4.37;48.49;101750.63;5007060;28;20021;-68
2022/01/19 12:18:39;;;;;;;9.30;8.70;;;;;;;4.73;47.67;101728.03;4993617;28;20033;-67
2022/01/19 12:21:05;;;;;;;8.75;8.25;;;;;;;4.89;48.40;101733.03;5008469;28;20054;-67
2022/01/19 12:23:34;;;;;;;9.23;8.63;;;;;;;4.63;48.24;101729.63;5001797;28;20540;-66
2022/01/19 12:26:00;;;;;;;8.75;8.25;;;;;;;4.40;48.70;101736.44;5002423;28;20050;-67
2022/01/19 12:28:53;;;;;;;9.13;8.63;;;;;;;3.67;50.30;101731.72;5011323;28;20053;-66
2022/01/19 12:31:25;;;;;;;9.15;8.65;;;;;;;3.97;49.81;101725.41;5005395;28;20100;-66
2022/01/19 12:34:02;;;;;;;9.57;8.98;;;;;;;3.83;50.15;101734.19;5000140;28;20031;-66
2022/01/19 12:36:42;;;;;;;9.55;8.95;;;;;;;3.74;50.40;101719.88;5020735;28;20045;-68
2022/01/19 12:39:29;;;;;;;11.23;10.38;;;;;;;3.91;50.05;101723.19;5014273;28;20100;-66
2022/01/19 12:42:28;;;;;;;9.23;8.70;;;;;;;4.03;49.66;101724.97;5004627;28;20022;-66
2022/01/19 12:44:56;;;;;;;9.07;8.57;;;;;;;4.07;49.32;101708.91;5010374;28;20026;-67
2022/01/19 12:47:24;;;;;;;9.45;8.85;;;;;;;4.09;49.24;101700.94;5008128;28;20060;-64
2022/01/19 12:49:58;;;;;;;8.20;7.80;;;;;;;4.05;48.90;101705.56;5008966;28;20033;-66
2022/01/19 12:52:28;;;;;;;8.30;7.90;;;;;;;4.00;48.72;101702.41;5010878;28;20049;-66
2022/01/19 12:54:56;;;;;;;10.13;9.45;;;;;;;3.84;48.11;101699.97;5009407;28;20087;-64
2022/01/19 12:57:21;;;;;;;8.43;7.97;;;;;;;3.76;47.23;101702.25;5014791;28;20026;-64
2022/01/19 12:59:50;;;;;;;9.75;9.15;;;;;;;3.59;46.47;101699.88;5006134;28;20040;-64